sensor_id;sensor_type;location;lat;lon;timestamp;P1;durP1;ratioP1;P2;durP2;ratioP2
68300;SDS011;55146;47.468;18.806;2023-03-16T00:01:38;7.67;;;4.23;;
68300;SDS011;55146;47.468;18.806;2023-03-16T00:04:03;10.33;;;5.47;;
68300;SDS011;55146;47.468;18.806;2023-03-16T00:06:29;11.37;;;5.37;;
68300;SDS011;55146;47.468;18.806;2023-03-16T00:08:54;10.00;;;4.97;;
68300;SDS011;55146;47.468;18.806;2023-03-16T00:11:23;10.30;;;4.67;;
68300;SDS011;55146;47.468;18.806;2023-03-16T00:13:51;9.88;;;4.45;;
68300;SDS011;55146;47.468;18.806;2023-03-16T00:16:16;8.47;;;5.63;;
68300;SDS011;55146;47.468;18.806;2023-03-16T00:18:42;11.20;;;5.32;;
68300;SDS011;55146;47.468;18.806;2023-03-16T00:21:07;10.50;;;5.10;;
68300;SDS011;55146;47.468;18.806;2023-03-16T00:23:33;8.00;;;4.87;;
68300;SDS011;55146;47.468;18.806;2023-03-16T00:26:00;9.88;;;5.25;;
68300;SDS011;55146;47.468;18.806;2023-03-16T00:28:28;9.73;;;5.35;;
68300;SDS011;55146;47.468;18.806;2023-03-16T00:30:58;11.90;;;5.68;;
68300;SDS011;55146;47.468;18.806;2023-03-16T00:33:31;10.63;;;5.63;;
68300;SDS011;55146;47.468;18.806;2023-03-16T00:35:59;13.30;;;6.47;;
68300;SDS011;55146;47.468;18.806;2023-03-16T00:38:32;9.10;;;4.55;;
68300;SDS011;55146;47.468;18.806;2023-03-16T00:40:59;14.70;;;5.35;;
68300;SDS011;55146;47.468;18.806;2023-03-16T00:43:28;8.80;;;5.07;;
68300;SDS011;55146;47.468;18.806;2023-03-16T00:45:58;11.87;;;6.07;;
68300;SDS011;55146;47.468;18.806;2023-03-16T00:48:31;8.07;;;5.45;;
68300;SDS011;55146;47.468;18.806;2023-03-16T00:50:59;10.75;;;5.32;;
68300;SDS011;55146;47.468;18.806;2023-03-16T00:53:25;10.95;;;5.90;;
68300;SDS011;55146;47.468;18.806;2023-03-16T00:55:50;13.37;;;4.30;;
68300;SDS011;55146;47.468;18.806;2023-03-16T00:58:17;10.32;;;5.28;;
68300;SDS011;55146;47.468;18.806;2023-03-16T01:00:44;10.68;;;5.25;;
68300;SDS011;55146;47.468;18.806;2023-03-16T01:03:09;11.03;;;4.87;;
68300;SDS011;55146;47.468;18.806;2023-03-16T01:05:38;12.02;;;5.43;;
68300;SDS011;55146;47.468;18.806;2023-03-16T01:08:04;10.90;;;5.63;;
68300;SDS011;55146;47.468;18.806;2023-03-16T01:10:32;13.68;;;5.25;;
68300;SDS011;55146;47.468;18.806;2023-03-16T01:12:58;10.90;;;5.87;;
68300;SDS011;55146;47.468;18.806;2023-03-16T01:15:24;12.37;;;6.03;;
68300;SDS011;55146;47.468;18.806;2023-03-16T01:17:49;10.33;;;5.83;;
68300;SDS011;55146;47.468;18.806;2023-03-16T01:20:15;13.38;;;5.72;;
68300;SDS011;55146;47.468;18.806;2023-03-16T01:22:43;12.95;;;5.22;;
68300;SDS011;55146;47.468;18.806;2023-03-16T01:25:10;9.55;;;5.05;;
68300;SDS011;55146;47.468;18.806;2023-03-16T01:27:36;15.77;;;6.57;;
68300;SDS011;55146;47.468;18.806;2023-03-16T01:30:02;12.77;;;5.60;;
68300;SDS011;55146;47.468;18.806;2023-03-16T01:32:28;13.20;;;5.62;;
68300;SDS011;55146;47.468;18.806;2023-03-16T01:34:54;10.30;;;4.47;;
68300;SDS011;55146;47.468;18.806;2023-03-16T01:37:19;12.57;;;5.63;;
68300;SDS011;55146;47.468;18.806;2023-03-16T01:39:46;14.48;;;6.05;;
68300;SDS011;55146;47.468;18.806;2023-03-16T01:42:12;15.48;;;4.90;;
68300;SDS011;55146;47.468;18.806;2023-03-16T01:44:48;8.03;;;4.50;;
68300;SDS011;55146;47.468;18.806;2023-03-16T01:47:15;9.35;;;5.90;;
68300;SDS011;55146;47.468;18.806;2023-03-16T01:49:42;11.73;;;5.28;;
68300;SDS011;55146;47.468;18.806;2023-03-16T01:52:13;11.93;;;5.53;;
68300;SDS011;55146;47.468;18.806;2023-03-16T01:57:11;10.65;;;5.43;;
68300;SDS011;55146;47.468;18.806;2023-03-16T01:59:58;13.32;;;5.57;;
68300;SDS011;55146;47.468;18.806;2023-03-16T02:02:55;11.68;;;5.30;;
68300;SDS011;55146;47.468;18.806;2023-03-16T02:08:07;10.77;;;5.30;;
68300;SDS011;55146;47.468;18.806;2023-03-16T02:10:36;13.77;;;5.70;;
68300;SDS011;55146;47.468;18.806;2023-03-16T02:13:02;7.62;;;4.22;;
68300;SDS011;55146;47.468;18.806;2023-03-16T02:15:28;9.53;;;5.47;;
68300;SDS011;55146;47.468;18.806;2023-03-16T02:17:53;12.30;;;5.30;;
68300;SDS011;55146;47.468;18.806;2023-03-16T02:23:06;12.60;;;4.93;;
68300;SDS011;55146;47.468;18.806;2023-03-16T02:28:36;11.60;;;5.30;;
68300;SDS011;55146;47.468;18.806;2023-03-16T02:31:09;14.60;;;6.03;;
68300;SDS011;55146;47.468;18.806;2023-03-16T02:33:36;13.27;;;5.13;;
68300;SDS011;55146;47.468;18.806;2023-03-16T02:36:02;11.57;;;5.47;;
68300;SDS011;55146;47.468;18.806;2023-03-16T02:38:28;11.68;;;5.97;;
68300;SDS011;55146;47.468;18.806;2023-03-16T02:40:58;10.97;;;5.07;;
68300;SDS011;55146;47.468;18.806;2023-03-16T02:43:42;12.00;;;5.97;;
68300;SDS011;55146;47.468;18.806;2023-03-16T02:46:16;11.20;;;5.68;;
68300;SDS011;55146;47.468;18.806;2023-03-16T02:49:02;10.38;;;6.20;;
68300;SDS011;55146;47.468;18.806;2023-03-16T02:51:40;9.23;;;6.23;;
68300;SDS011;55146;47.468;18.806;2023-03-16T02:54:06;14.87;;;5.43;;
68300;SDS011;55146;47.468;18.806;2023-03-16T02:56:31;11.50;;;6.10;;
68300;SDS011;55146;47.468;18.806;2023-03-16T02:58:57;11.82;;;5.20;;
68300;SDS011;55146;47.468;18.806;2023-03-16T03:01:22;15.90;;;5.47;;
68300;SDS011;55146;47.468;18.806;2023-03-16T03:03:48;11.00;;;6.47;;
68300;SDS011;55146;47.468;18.806;2023-03-16T03:06:14;11.73;;;5.72;;
68300;SDS011;55146;47.468;18.806;2023-03-16T03:08:39;11.30;;;5.17;;
68300;SDS011;55146;47.468;18.806;2023-03-16T03:11:05;14.43;;;5.30;;
68300;SDS011;55146;47.468;18.806;2023-03-16T03:13:30;12.02;;;5.50;;
68300;SDS011;55146;47.468;18.806;2023-03-16T03:15:55;10.53;;;5.00;;
68300;SDS011;55146;47.468;18.806;2023-03-16T03:18:21;10.57;;;5.03;;
68300;SDS011;55146;47.468;18.806;2023-03-16T03:20:55;10.98;;;4.90;;
68300;SDS011;55146;47.468;18.806;2023-03-16T03:23:21;13.77;;;6.00;;
68300;SDS011;55146;47.468;18.806;2023-03-16T03:25:46;10.17;;;6.03;;
68300;SDS011;55146;47.468;18.806;2023-03-16T03:28:12;12.83;;;6.60;;
68300;SDS011;55146;47.468;18.806;2023-03-16T03:30:37;13.55;;;6.50;;
68300;SDS011;55146;47.468;18.806;2023-03-16T03:33:02;11.33;;;5.63;;
68300;SDS011;55146;47.468;18.806;2023-03-16T03:35:28;15.00;;;6.03;;
68300;SDS011;55146;47.468;18.806;2023-03-16T03:37:53;14.83;;;6.10;;
68300;SDS011;55146;47.468;18.806;2023-03-16T03:40:19;11.97;;;5.93;;
68300;SDS011;55146;47.468;18.806;2023-03-16T03:42:45;12.05;;;5.78;;
68300;SDS011;55146;47.468;18.806;2023-03-16T03:45:10;14.10;;;6.20;;
68300;SDS011;55146;47.468;18.806;2023-03-16T03:47:37;12.65;;;5.05;;
68300;SDS011;55146;47.468;18.806;2023-03-16T03:50:03;12.57;;;6.85;;
68300;SDS011;55146;47.468;18.806;2023-03-16T03:52:29;10.52;;;5.78;;
68300;SDS011;55146;47.468;18.806;2023-03-16T03:54:54;10.53;;;5.27;;
68300;SDS011;55146;47.468;18.806;2023-03-16T03:57:20;13.53;;;6.17;;
68300;SDS011;55146;47.468;18.806;2023-03-16T03:59:45;14.03;;;6.10;;
68300;SDS011;55146;47.468;18.806;2023-03-16T04:02:11;11.48;;;5.80;;
68300;SDS011;55146;47.468;18.806;2023-03-16T04:04:38;14.20;;;6.13;;
68300;SDS011;55146;47.468;18.806;2023-03-16T04:07:04;10.85;;;5.97;;
68300;SDS011;55146;47.468;18.806;2023-03-16T04:09:29;12.47;;;6.30;;
68300;SDS011;55146;47.468;18.806;2023-03-16T04:11:59;9.95;;;5.90;;
68300;SDS011;55146;47.468;18.806;2023-03-16T04:14:24;13.73;;;6.60;;
68300;SDS011;55146;47.468;18.806;2023-03-16T04:16:50;9.73;;;5.83;;
68300;SDS011;55146;47.468;18.806;2023-03-16T04:19:15;10.20;;;5.97;;
68300;SDS011;55146;47.468;18.806;2023-03-16T04:21:41;14.98;;;6.75;;
68300;SDS011;55146;47.468;18.806;2023-03-16T04:24:06;15.00;;;5.90;;
68300;SDS011;55146;47.468;18.806;2023-03-16T04:26:31;11.87;;;6.40;;
68300;SDS011;55146;47.468;18.806;2023-03-16T04:28:58;11.07;;;6.10;;
68300;SDS011;55146;47.468;18.806;2023-03-16T04:31:24;12.27;;;6.83;;
68300;SDS011;55146;47.468;18.806;2023-03-16T04:33:50;13.80;;;5.93;;
68300;SDS011;55146;47.468;18.806;2023-03-16T04:36:18;11.43;;;6.72;;
68300;SDS011;55146;47.468;18.806;2023-03-16T04:38:48;10.85;;;6.07;;
68300;SDS011;55146;47.468;18.806;2023-03-16T04:41:14;11.00;;;6.20;;
68300;SDS011;55146;47.468;18.806;2023-03-16T04:43:40;11.07;;;6.57;;
68300;SDS011;55146;47.468;18.806;2023-03-16T04:46:07;10.27;;;6.57;;
68300;SDS011;55146;47.468;18.806;2023-03-16T04:48:33;12.40;;;6.72;;
68300;SDS011;55146;47.468;18.806;2023-03-16T04:50:58;10.23;;;6.60;;
68300;SDS011;55146;47.468;18.806;2023-03-16T04:53:26;13.57;;;6.55;;
68300;SDS011;55146;47.468;18.806;2023-03-16T04:55:51;13.25;;;6.87;;
68300;SDS011;55146;47.468;18.806;2023-03-16T04:58:44;17.92;;;6.93;;
68300;SDS011;55146;47.468;18.806;2023-03-16T05:01:10;15.70;;;6.50;;
68300;SDS011;55146;47.468;18.806;2023-03-16T05:03:35;14.80;;;7.68;;
68300;SDS011;55146;47.468;18.806;2023-03-16T05:06:01;13.37;;;6.93;;
68300;SDS011;55146;47.468;18.806;2023-03-16T05:08:26;11.57;;;6.03;;
68300;SDS011;55146;47.468;18.806;2023-03-16T05:10:55;12.30;;;6.83;;
68300;SDS011;55146;47.468;18.806;2023-03-16T05:13:21;13.68;;;6.53;;
68300;SDS011;55146;47.468;18.806;2023-03-16T05:15:46;12.20;;;6.43;;
68300;SDS011;55146;47.468;18.806;2023-03-16T05:18:11;16.00;;;7.23;;
68300;SDS011;55146;47.468;18.806;2023-03-16T05:20:37;13.63;;;7.83;;
68300;SDS011;55146;47.468;18.806;2023-03-16T05:23:02;14.27;;;6.50;;
68300;SDS011;55146;47.468;18.806;2023-03-16T05:25:28;11.02;;;6.85;;
68300;SDS011;55146;47.468;18.806;2023-03-16T05:27:53;11.30;;;6.43;;
68300;SDS011;55146;47.468;18.806;2023-03-16T05:30:19;14.20;;;7.07;;
68300;SDS011;55146;47.468;18.806;2023-03-16T05:32:44;13.43;;;7.27;;
68300;SDS011;55146;47.468;18.806;2023-03-16T05:35:11;16.42;;;7.75;;
68300;SDS011;55146;47.468;18.806;2023-03-16T05:37:40;13.30;;;6.85;;
68300;SDS011;55146;47.468;18.806;2023-03-16T05:40:07;17.50;;;7.68;;
68300;SDS011;55146;47.468;18.806;2023-03-16T05:42:38;15.17;;;6.73;;
68300;SDS011;55146;47.468;18.806;2023-03-16T05:45:03;11.23;;;5.97;;
68300;SDS011;55146;47.468;18.806;2023-03-16T05:47:29;18.27;;;7.37;;
68300;SDS011;55146;47.468;18.806;2023-03-16T05:49:54;14.67;;;7.00;;
68300;SDS011;55146;47.468;18.806;2023-03-16T05:52:20;20.67;;;7.32;;
68300;SDS011;55146;47.468;18.806;2023-03-16T05:54:45;16.20;;;6.90;;
68300;SDS011;55146;47.468;18.806;2023-03-16T05:57:10;15.63;;;7.40;;
68300;SDS011;55146;47.468;18.806;2023-03-16T05:59:36;14.00;;;7.93;;
68300;SDS011;55146;47.468;18.806;2023-03-16T06:02:01;14.53;;;8.27;;
68300;SDS011;55146;47.468;18.806;2023-03-16T06:04:27;14.57;;;7.32;;
68300;SDS011;55146;47.468;18.806;2023-03-16T06:06:52;17.73;;;7.70;;
68300;SDS011;55146;47.468;18.806;2023-03-16T06:09:17;14.60;;;7.63;;
68300;SDS011;55146;47.468;18.806;2023-03-16T06:11:43;18.13;;;8.03;;
68300;SDS011;55146;47.468;18.806;2023-03-16T06:14:08;11.47;;;6.60;;
68300;SDS011;55146;47.468;18.806;2023-03-16T06:16:33;15.83;;;7.33;;
68300;SDS011;55146;47.468;18.806;2023-03-16T06:18:59;12.70;;;7.12;;
68300;SDS011;55146;47.468;18.806;2023-03-16T06:21:24;11.50;;;7.27;;
68300;SDS011;55146;47.468;18.806;2023-03-16T06:23:50;14.53;;;7.67;;
68300;SDS011;55146;47.468;18.806;2023-03-16T06:26:15;14.23;;;7.63;;
68300;SDS011;55146;47.468;18.806;2023-03-16T06:28:41;12.55;;;7.50;;
68300;SDS011;55146;47.468;18.806;2023-03-16T06:31:06;13.77;;;6.73;;
68300;SDS011;55146;47.468;18.806;2023-03-16T06:33:31;13.87;;;7.83;;
68300;SDS011;55146;47.468;18.806;2023-03-16T06:35:57;13.97;;;8.33;;
68300;SDS011;55146;47.468;18.806;2023-03-16T06:38:22;21.37;;;8.50;;
68300;SDS011;55146;47.468;18.806;2023-03-16T06:40:51;15.83;;;8.47;;
68300;SDS011;55146;47.468;18.806;2023-03-16T06:43:17;16.73;;;9.10;;
68300;SDS011;55146;47.468;18.806;2023-03-16T06:45:42;14.80;;;8.77;;
68300;SDS011;55146;47.468;18.806;2023-03-16T06:48:08;15.83;;;9.37;;
68300;SDS011;55146;47.468;18.806;2023-03-16T06:50:34;14.73;;;7.72;;
68300;SDS011;55146;47.468;18.806;2023-03-16T06:52:59;16.03;;;8.87;;
68300;SDS011;55146;47.468;18.806;2023-03-16T06:55:25;18.70;;;9.07;;
68300;SDS011;55146;47.468;18.806;2023-03-16T06:57:50;14.40;;;8.50;;
68300;SDS011;55146;47.468;18.806;2023-03-16T07:00:15;11.37;;;7.70;;
68300;SDS011;55146;47.468;18.806;2023-03-16T07:02:41;13.50;;;7.50;;
68300;SDS011;55146;47.468;18.806;2023-03-16T07:05:07;16.02;;;8.50;;
68300;SDS011;55146;47.468;18.806;2023-03-16T07:07:38;13.25;;;8.32;;
68300;SDS011;55146;47.468;18.806;2023-03-16T07:10:08;13.90;;;8.18;;
68300;SDS011;55146;47.468;18.806;2023-03-16T07:12:35;16.07;;;8.40;;
68300;SDS011;55146;47.468;18.806;2023-03-16T07:15:00;16.55;;;8.65;;
68300;SDS011;55146;47.468;18.806;2023-03-16T07:17:26;11.90;;;7.40;;
68300;SDS011;55146;47.468;18.806;2023-03-16T07:19:51;16.03;;;8.53;;
68300;SDS011;55146;47.468;18.806;2023-03-16T07:22:16;13.97;;;8.33;;
68300;SDS011;55146;47.468;18.806;2023-03-16T07:24:42;13.67;;;8.53;;
68300;SDS011;55146;47.468;18.806;2023-03-16T07:27:08;15.43;;;7.30;;
68300;SDS011;55146;47.468;18.806;2023-03-16T07:29:33;12.60;;;7.37;;
68300;SDS011;55146;47.468;18.806;2023-03-16T07:31:58;14.37;;;7.77;;
68300;SDS011;55146;47.468;18.806;2023-03-16T07:34:24;14.73;;;8.07;;
68300;SDS011;55146;47.468;18.806;2023-03-16T07:36:49;14.80;;;7.40;;
68300;SDS011;55146;47.468;18.806;2023-03-16T07:39:16;14.87;;;7.57;;
68300;SDS011;55146;47.468;18.806;2023-03-16T07:41:42;15.07;;;7.97;;
68300;SDS011;55146;47.468;18.806;2023-03-16T07:44:08;14.87;;;8.00;;
68300;SDS011;55146;47.468;18.806;2023-03-16T07:46:35;12.15;;;6.85;;
68300;SDS011;55146;47.468;18.806;2023-03-16T07:49:00;15.77;;;7.37;;
68300;SDS011;55146;47.468;18.806;2023-03-16T07:51:26;11.70;;;6.83;;
68300;SDS011;55146;47.468;18.806;2023-03-16T07:53:52;13.82;;;7.12;;
68300;SDS011;55146;47.468;18.806;2023-03-16T07:56:17;13.07;;;7.33;;
68300;SDS011;55146;47.468;18.806;2023-03-16T07:58:43;16.05;;;7.03;;
68300;SDS011;55146;47.468;18.806;2023-03-16T08:01:08;13.97;;;7.10;;
68300;SDS011;55146;47.468;18.806;2023-03-16T08:03:35;13.93;;;7.18;;
68300;SDS011;55146;47.468;18.806;2023-03-16T08:06:01;13.70;;;6.47;;
68300;SDS011;55146;47.468;18.806;2023-03-16T08:08:28;15.20;;;7.27;;
68300;SDS011;55146;47.468;18.806;2023-03-16T08:10:53;14.63;;;7.03;;
68300;SDS011;55146;47.468;18.806;2023-03-16T08:13:19;9.67;;;6.63;;
68300;SDS011;55146;47.468;18.806;2023-03-16T08:15:49;12.18;;;7.18;;
68300;SDS011;55146;47.468;18.806;2023-03-16T08:18:25;13.13;;;7.47;;
68300;SDS011;55146;47.468;18.806;2023-03-16T08:20:52;11.93;;;6.18;;
68300;SDS011;55146;47.468;18.806;2023-03-16T08:23:18;14.50;;;6.70;;
68300;SDS011;55146;47.468;18.806;2023-03-16T08:25:45;11.55;;;6.97;;
68300;SDS011;55146;47.468;18.806;2023-03-16T08:28:10;11.03;;;6.30;;
68300;SDS011;55146;47.468;18.806;2023-03-16T08:30:36;9.63;;;5.75;;
68300;SDS011;55146;47.468;18.806;2023-03-16T08:33:01;13.33;;;6.17;;
68300;SDS011;55146;47.468;18.806;2023-03-16T08:35:27;13.13;;;7.17;;
68300;SDS011;55146;47.468;18.806;2023-03-16T08:37:53;10.23;;;6.15;;
68300;SDS011;55146;47.468;18.806;2023-03-16T08:40:19;10.18;;;6.62;;
68300;SDS011;55146;47.468;18.806;2023-03-16T08:42:49;10.88;;;6.45;;
68300;SDS011;55146;47.468;18.806;2023-03-16T08:45:15;10.50;;;5.60;;
68300;SDS011;55146;47.468;18.806;2023-03-16T08:47:41;10.63;;;5.82;;
68300;SDS011;55146;47.468;18.806;2023-03-16T08:50:08;9.63;;;5.90;;
68300;SDS011;55146;47.468;18.806;2023-03-16T08:52:34;10.77;;;6.27;;
68300;SDS011;55146;47.468;18.806;2023-03-16T08:55:03;11.70;;;5.70;;
68300;SDS011;55146;47.468;18.806;2023-03-16T08:57:30;8.50;;;5.18;;
68300;SDS011;55146;47.468;18.806;2023-03-16T08:59:57;9.77;;;5.75;;
68300;SDS011;55146;47.468;18.806;2023-03-16T09:02:23;10.37;;;5.67;;
68300;SDS011;55146;47.468;18.806;2023-03-16T09:04:49;12.25;;;6.25;;
68300;SDS011;55146;47.468;18.806;2023-03-16T09:07:15;10.93;;;5.97;;
68300;SDS011;55146;47.468;18.806;2023-03-16T09:09:40;17.07;;;6.30;;
68300;SDS011;55146;47.468;18.806;2023-03-16T09:12:06;11.53;;;5.73;;
68300;SDS011;55146;47.468;18.806;2023-03-16T09:14:32;11.20;;;5.62;;
68300;SDS011;55146;47.468;18.806;2023-03-16T09:16:58;9.77;;;5.27;;
68300;SDS011;55146;47.468;18.806;2023-03-16T09:19:23;8.03;;;5.30;;
68300;SDS011;55146;47.468;18.806;2023-03-16T09:21:49;13.87;;;7.43;;
68300;SDS011;55146;47.468;18.806;2023-03-16T09:24:15;8.07;;;5.20;;
68300;SDS011;55146;47.468;18.806;2023-03-16T09:26:41;11.43;;;5.97;;
68300;SDS011;55146;47.468;18.806;2023-03-16T09:29:07;8.85;;;5.62;;
68300;SDS011;55146;47.468;18.806;2023-03-16T09:31:33;12.23;;;6.67;;
68300;SDS011;55146;47.468;18.806;2023-03-16T09:34:00;10.02;;;5.10;;
68300;SDS011;55146;47.468;18.806;2023-03-16T09:36:25;10.13;;;6.03;;
68300;SDS011;55146;47.468;18.806;2023-03-16T09:38:51;10.03;;;5.87;;
68300;SDS011;55146;47.468;18.806;2023-03-16T09:46:52;8.77;;;5.22;;
68300;SDS011;55146;47.468;18.806;2023-03-16T09:49:18;11.52;;;5.85;;
68300;SDS011;55146;47.468;18.806;2023-03-16T09:54:35;9.27;;;5.53;;
68300;SDS011;55146;47.468;18.806;2023-03-16T09:59:52;12.05;;;6.22;;
68300;SDS011;55146;47.468;18.806;2023-03-16T10:02:30;9.18;;;5.97;;
68300;SDS011;55146;47.468;18.806;2023-03-16T10:16:26;10.45;;;5.00;;
68300;SDS011;55146;47.468;18.806;2023-03-16T10:19:02;11.02;;;5.20;;
68300;SDS011;55146;47.468;18.806;2023-03-16T10:21:35;8.50;;;4.40;;
68300;SDS011;55146;47.468;18.806;2023-03-16T10:24:03;8.43;;;5.10;;
68300;SDS011;55146;47.468;18.806;2023-03-16T10:26:40;9.20;;;5.05;;
68300;SDS011;55146;47.468;18.806;2023-03-16T10:29:11;8.52;;;4.62;;
68300;SDS011;55146;47.468;18.806;2023-03-16T10:31:39;10.25;;;5.07;;
68300;SDS011;55146;47.468;18.806;2023-03-16T10:34:05;10.43;;;5.23;;
68300;SDS011;55146;47.468;18.806;2023-03-16T10:36:42;11.82;;;4.80;;
68300;SDS011;55146;47.468;18.806;2023-03-16T10:39:12;9.75;;;5.15;;
68300;SDS011;55146;47.468;18.806;2023-03-16T10:41:41;12.98;;;5.12;;
68300;SDS011;55146;47.468;18.806;2023-03-16T10:44:10;9.27;;;4.90;;
68300;SDS011;55146;47.468;18.806;2023-03-16T10:47:03;6.93;;;4.47;;
68300;SDS011;55146;47.468;18.806;2023-03-16T10:49:37;8.23;;;4.47;;
68300;SDS011;55146;47.468;18.806;2023-03-16T10:52:19;7.93;;;4.78;;
68300;SDS011;55146;47.468;18.806;2023-03-16T10:54:57;11.85;;;4.20;;
68300;SDS011;55146;47.468;18.806;2023-03-16T10:57:29;7.00;;;4.60;;
68300;SDS011;55146;47.468;18.806;2023-03-16T11:00:05;7.87;;;3.40;;
68300;SDS011;55146;47.468;18.806;2023-03-16T11:02:45;8.27;;;4.28;;
68300;SDS011;55146;47.468;18.806;2023-03-16T11:05:23;8.55;;;4.40;;
68300;SDS011;55146;47.468;18.806;2023-03-16T11:10:24;8.07;;;4.10;;
68300;SDS011;55146;47.468;18.806;2023-03-16T11:12:51;8.50;;;4.30;;
68300;SDS011;55146;47.468;18.806;2023-03-16T11:15:17;7.03;;;4.18;;
68300;SDS011;55146;47.468;18.806;2023-03-16T11:17:44;7.30;;;4.47;;
68300;SDS011;55146;47.468;18.806;2023-03-16T11:20:15;7.03;;;3.40;;
68300;SDS011;55146;47.468;18.806;2023-03-16T11:22:44;8.57;;;3.47;;
68300;SDS011;55146;47.468;18.806;2023-03-16T11:25:17;7.87;;;4.37;;
68300;SDS011;55146;47.468;18.806;2023-03-16T11:33:27;7.25;;;3.10;;
68300;SDS011;55146;47.468;18.806;2023-03-16T11:38:45;7.22;;;3.62;;
68300;SDS011;55146;47.468;18.806;2023-03-16T11:44:04;5.90;;;2.53;;
68300;SDS011;55146;47.468;18.806;2023-03-16T11:55:32;7.65;;;3.35;;
68300;SDS011;55146;47.468;18.806;2023-03-16T11:58:26;5.00;;;3.30;;
68300;SDS011;55146;47.468;18.806;2023-03-16T12:03:42;5.20;;;2.45;;
68300;SDS011;55146;47.468;18.806;2023-03-16T12:06:25;5.93;;;2.67;;
68300;SDS011;55146;47.468;18.806;2023-03-16T12:08:59;9.02;;;2.53;;
68300;SDS011;55146;47.468;18.806;2023-03-16T12:19:21;5.60;;;2.20;;
68300;SDS011;55146;47.468;18.806;2023-03-16T12:21:51;9.38;;;3.30;;
68300;SDS011;55146;47.468;18.806;2023-03-16T12:24:27;5.60;;;2.40;;
68300;SDS011;55146;47.468;18.806;2023-03-16T12:26:59;6.18;;;2.25;;
68300;SDS011;55146;47.468;18.806;2023-03-16T12:29:32;5.53;;;2.50;;
68300;SDS011;55146;47.468;18.806;2023-03-16T12:35:14;6.43;;;2.70;;
68300;SDS011;55146;47.468;18.806;2023-03-16T12:40:53;5.75;;;2.90;;
68300;SDS011;55146;47.468;18.806;2023-03-16T12:46:01;4.90;;;2.60;;
68300;SDS011;55146;47.468;18.806;2023-03-16T12:48:33;5.07;;;2.08;;
68300;SDS011;55146;47.468;18.806;2023-03-16T12:51:03;4.90;;;2.20;;
68300;SDS011;55146;47.468;18.806;2023-03-16T12:53:46;5.85;;;3.65;;
68300;SDS011;55146;47.468;18.806;2023-03-16T12:56:19;6.30;;;2.80;;
68300;SDS011;55146;47.468;18.806;2023-03-16T12:58:53;7.35;;;2.75;;
68300;SDS011;55146;47.468;18.806;2023-03-16T13:01:24;6.55;;;3.22;;
68300;SDS011;55146;47.468;18.806;2023-03-16T13:03:57;5.17;;;2.50;;
68300;SDS011;55146;47.468;18.806;2023-03-16T13:06:30;6.28;;;2.60;;
68300;SDS011;55146;47.468;18.806;2023-03-16T13:08:58;5.25;;;2.70;;
68300;SDS011;55146;47.468;18.806;2023-03-16T13:11:25;8.77;;;2.83;;
68300;SDS011;55146;47.468;18.806;2023-03-16T13:16:25;5.87;;;2.87;;
68300;SDS011;55146;47.468;18.806;2023-03-16T13:18:55;5.20;;;2.60;;
68300;SDS011;55146;47.468;18.806;2023-03-16T13:21:33;7.75;;;2.70;;
68300;SDS011;55146;47.468;18.806;2023-03-16T13:24:21;5.95;;;2.87;;
68300;SDS011;55146;47.468;18.806;2023-03-16T13:26:53;8.27;;;3.37;;
68300;SDS011;55146;47.468;18.806;2023-03-16T13:29:26;5.50;;;2.92;;
68300;SDS011;55146;47.468;18.806;2023-03-16T13:31:53;6.40;;;3.22;;
68300;SDS011;55146;47.468;18.806;2023-03-16T13:36:55;5.22;;;2.50;;
68300;SDS011;55146;47.468;18.806;2023-03-16T13:39:24;5.37;;;2.27;;
68300;SDS011;55146;47.468;18.806;2023-03-16T13:41:59;6.90;;;2.62;;
68300;SDS011;55146;47.468;18.806;2023-03-16T13:44:43;4.65;;;2.12;;
68300;SDS011;55146;47.468;18.806;2023-03-16T13:47:15;6.45;;;2.85;;
68300;SDS011;55146;47.468;18.806;2023-03-16T13:50:15;5.10;;;2.90;;
68300;SDS011;55146;47.468;18.806;2023-03-16T13:52:38;8.00;;;2.60;;
68300;SDS011;55146;47.468;18.806;2023-03-16T13:55:06;8.10;;;3.35;;
68300;SDS011;55146;47.468;18.806;2023-03-16T13:57:40;6.05;;;3.12;;
68300;SDS011;55146;47.468;18.806;2023-03-16T14:00:14;4.90;;;2.95;;
68300;SDS011;55146;47.468;18.806;2023-03-16T14:02:44;5.82;;;2.92;;
68300;SDS011;55146;47.468;18.806;2023-03-16T14:05:20;10.60;;;2.70;;
68300;SDS011;55146;47.468;18.806;2023-03-16T14:07:47;5.62;;;2.60;;
68300;SDS011;55146;47.468;18.806;2023-03-16T14:10:15;5.62;;;2.70;;
68300;SDS011;55146;47.468;18.806;2023-03-16T14:12:54;4.85;;;2.92;;
68300;SDS011;55146;47.468;18.806;2023-03-16T14:15:24;6.22;;;2.30;;
68300;SDS011;55146;47.468;18.806;2023-03-16T14:17:51;5.77;;;2.40;;
68300;SDS011;55146;47.468;18.806;2023-03-16T14:20:18;4.65;;;2.47;;
68300;SDS011;55146;47.468;18.806;2023-03-16T14:22:46;9.93;;;3.37;;
68300;SDS011;55146;47.468;18.806;2023-03-16T14:25:18;6.18;;;3.00;;
68300;SDS011;55146;47.468;18.806;2023-03-16T14:27:58;6.30;;;3.00;;
68300;SDS011;55146;47.468;18.806;2023-03-16T14:30:26;4.97;;;2.20;;
68300;SDS011;55146;47.468;18.806;2023-03-16T14:33:04;5.45;;;3.05;;
68300;SDS011;55146;47.468;18.806;2023-03-16T14:35:40;5.95;;;2.42;;
68300;SDS011;55146;47.468;18.806;2023-03-16T14:41:26;5.70;;;2.35;;
68300;SDS011;55146;47.468;18.806;2023-03-16T14:43:53;6.37;;;2.57;;
68300;SDS011;55146;47.468;18.806;2023-03-16T14:46:32;5.15;;;1.92;;
68300;SDS011;55146;47.468;18.806;2023-03-16T14:49:05;7.90;;;3.08;;
68300;SDS011;55146;47.468;18.806;2023-03-16T14:51:42;7.45;;;3.05;;
68300;SDS011;55146;47.468;18.806;2023-03-16T14:54:11;8.07;;;2.53;;
68300;SDS011;55146;47.468;18.806;2023-03-16T14:56:38;4.83;;;2.10;;
68300;SDS011;55146;47.468;18.806;2023-03-16T14:59:04;5.70;;;2.58;;
68300;SDS011;55146;47.468;18.806;2023-03-16T15:01:30;7.87;;;5.22;;
68300;SDS011;55146;47.468;18.806;2023-03-16T15:03:56;6.57;;;3.03;;
68300;SDS011;55146;47.468;18.806;2023-03-16T15:06:21;4.93;;;2.37;;
68300;SDS011;55146;47.468;18.806;2023-03-16T15:08:47;9.63;;;3.05;;
68300;SDS011;55146;47.468;18.806;2023-03-16T15:11:14;7.47;;;2.85;;
68300;SDS011;55146;47.468;18.806;2023-03-16T15:13:45;6.67;;;4.00;;
68300;SDS011;55146;47.468;18.806;2023-03-16T15:16:12;10.30;;;4.47;;
68300;SDS011;55146;47.468;18.806;2023-03-16T15:18:38;5.60;;;2.53;;
68300;SDS011;55146;47.468;18.806;2023-03-16T15:21:11;5.80;;;2.85;;
68300;SDS011;55146;47.468;18.806;2023-03-16T15:23:46;6.53;;;3.30;;
68300;SDS011;55146;47.468;18.806;2023-03-16T15:26:14;11.23;;;4.33;;
68300;SDS011;55146;47.468;18.806;2023-03-16T15:28:42;6.68;;;3.45;;
68300;SDS011;55146;47.468;18.806;2023-03-16T15:31:09;5.43;;;3.03;;
68300;SDS011;55146;47.468;18.806;2023-03-16T15:33:37;6.53;;;2.80;;
68300;SDS011;55146;47.468;18.806;2023-03-16T15:36:05;5.03;;;3.03;;
68300;SDS011;55146;47.468;18.806;2023-03-16T15:38:38;4.80;;;2.60;;
68300;SDS011;55146;47.468;18.806;2023-03-16T15:41:11;8.25;;;3.10;;
68300;SDS011;55146;47.468;18.806;2023-03-16T15:43:37;6.12;;;2.70;;
68300;SDS011;55146;47.468;18.806;2023-03-16T15:46:03;6.03;;;2.72;;
68300;SDS011;55146;47.468;18.806;2023-03-16T15:48:29;9.10;;;2.73;;
68300;SDS011;55146;47.468;18.806;2023-03-16T15:50:59;5.72;;;2.70;;
68300;SDS011;55146;47.468;18.806;2023-03-16T15:53:27;8.95;;;3.15;;
68300;SDS011;55146;47.468;18.806;2023-03-16T15:55:58;4.90;;;3.20;;
68300;SDS011;55146;47.468;18.806;2023-03-16T15:58:27;6.57;;;2.62;;